sensor_id;sensor_type;location;lat;lon;timestamp;pressure;altitude;pressure_sealevel;temperature;humidity
27685;BME280;46113;50.130;8.526;2023-04-15T07:04:29;98218.13;;;4.57;65.09
27685;BME280;46113;50.130;8.526;2023-04-15T07:08:02;98220.84;;;4.73;64.98
27685;BME280;46113;50.130;8.526;2023-04-15T07:15:10;98223.47;;;4.56;67.12
27685;BME280;46113;50.130;8.526;2023-04-15T08:02:22;98232.44;;;5.72;65.01
27685;BME280;46113;50.130;8.526;2023-04-15T08:09:00;98228.53;;;5.79;64.85
27685;BME280;46113;50.130;8.526;2023-04-15T08:12:31;98228.53;;;5.95;63.29
27685;BME280;46113;50.130;8.526;2023-04-15T08:16:27;98227.59;;;6.12;61.83
27685;BME280;46113;50.130;8.526;2023-04-15T16:25:14;98639.97;;;6.29;76.49
27685;BME280;46113;50.130;8.526;2023-04-15T19:06:50;98821.06;;;5.55;79.40
27685;BME280;46113;50.130;8.526;2023-04-15T19:10:10;98825.78;;;5.67;79.22
27685;BME280;46113;50.130;8.526;2023-04-15T19:13:22;98826.44;;;5.92;77.85
27685;BME280;46113;50.130;8.526;2023-04-15T19:42:30;98861.34;;;5.54;79.50
27685;BME280;46113;50.130;8.526;2023-04-15T19:46:31;98865.16;;;5.86;79.32
27685;BME280;46113;50.130;8.526;2023-04-15T19:50:22;98860.56;;;5.92;78.76
27685;BME280;46113;50.130;8.526;2023-04-15T19:53:27;98860.28;;;5.58;79.81
27685;BME280;46113;50.130;8.526;2023-04-15T20:08:35;98866.03;;;5.25;81.84
27685;BME280;46113;50.130;8.526;2023-04-15T20:11:30;98869.72;;;5.62;80.78
27685;BME280;46113;50.130;8.526;2023-04-15T20:14:48;98867.50;;;5.53;81.20
27685;BME280;46113;50.130;8.526;2023-04-15T20:18:23;98872.94;;;5.69;80.63
27685;BME280;46113;50.130;8.526;2023-04-15T20:22:01;98877.00;;;5.76;80.50
27685;BME280;46113;50.130;8.526;2023-04-15T20:25:28;98871.59;;;5.17;82.69
27685;BME280;46113;50.130;8.526;2023-04-15T20:28:29;98871.78;;;5.33;81.86
27685;BME280;46113;50.130;8.526;2023-04-15T20:31:17;98876.50;;;5.47;81.84
27685;BME280;46113;50.130;8.526;2023-04-15T20:34:44;98875.78;;;5.64;80.45
27685;BME280;46113;50.130;8.526;2023-04-15T20:41:36;98885.88;;;5.53;81.12
27685;BME280;46113;50.130;8.526;2023-04-15T20:48:41;98890.69;;;5.20;82.61
27685;BME280;46113;50.130;8.526;2023-04-15T20:51:47;98894.38;;;5.37;83.15
27685;BME280;46113;50.130;8.526;2023-04-15T21:06:21;98906.72;;;5.77;80.74
27685;BME280;46113;50.130;8.526;2023-04-15T21:09:38;98907.84;;;5.71;80.97
27685;BME280;46113;50.130;8.526;2023-04-15T21:13:01;98908.72;;;5.71;80.20
27685;BME280;46113;50.130;8.526;2023-04-15T21:16:22;98912.25;;;5.50;81.69
27685;BME280;46113;50.130;8.526;2023-04-15T21:19:05;98915.25;;;5.40;82.95
27685;BME280;46113;50.130;8.526;2023-04-15T21:22:07;98924.72;;;5.65;80.84
27685;BME280;46113;50.130;8.526;2023-04-15T21:28:58;98923.00;;;5.43;82.27
27685;BME280;46113;50.130;8.526;2023-04-15T21:31:48;98922.75;;;5.91;80.28
27685;BME280;46113;50.130;8.526;2023-04-15T21:35:16;98928.63;;;5.96;79.83
27685;BME280;46113;50.130;8.526;2023-04-15T21:39:07;98933.09;;;5.73;80.11
27685;BME280;46113;50.130;8.526;2023-04-15T21:42:21;98933.31;;;5.69;80.55
27685;BME280;46113;50.130;8.526;2023-04-15T21:45:43;98937.44;;;5.95;79.52
27685;BME280;46113;50.130;8.526;2023-04-15T21:49:12;98938.63;;;5.67;79.93
27685;BME280;46113;50.130;8.526;2023-04-15T21:55:52;98944.53;;;5.72;79.80
27685;BME280;46113;50.130;8.526;2023-04-15T21:59:07;98944.84;;;5.85;80.20
27685;BME280;46113;50.130;8.526;2023-04-15T22:02:21;98947.94;;;5.54;81.29
27685;BME280;46113;50.130;8.526;2023-04-15T22:16:45;98961.16;;;5.73;81.09
27685;BME280;46113;50.130;8.526;2023-04-15T22:19:37;98971.69;;;5.51;80.91
27685;BME280;46113;50.130;8.526;2023-04-15T22:28:30;98974.31;;;5.51;81.53
27685;BME280;46113;50.130;8.526;2023-04-15T22:32:00;98973.06;;;5.80;80.48
27685;BME280;46113;50.130;8.526;2023-04-15T22:35:04;98984.28;;;5.84;80.71
27685;BME280;46113;50.130;8.526;2023-04-15T22:37:42;98982.19;;;5.71;80.03
27685;BME280;46113;50.130;8.526;2023-04-15T22:40:23;98987.13;;;5.79;80.23
27685;BME280;46113;50.130;8.526;2023-04-15T22:43:32;98984.28;;;5.63;80.21
27685;BME280;46113;50.130;8.526;2023-04-15T22:46:20;98992.78;;;5.48;80.63
27685;BME280;46113;50.130;8.526;2023-04-15T22:49:50;98994.50;;;5.49;79.83
27685;BME280;46113;50.130;8.526;2023-04-15T22:52:33;98998.09;;;5.46;79.48
27685;BME280;46113;50.130;8.526;2023-04-15T22:55:17;99005.81;;;5.71;79.86
27685;BME280;46113;50.130;8.526;2023-04-15T22:57:58;99001.38;;;5.51;80.08
